createdAt,value
2023-08-05T00:00:59.234Z,97428.16
2023-08-05T00:03:09.779Z,97425.63
2023-08-05T00:05:20.509Z,97427.78
2023-08-05T00:07:47.302Z,97427.47
2023-08-05T00:09:57.701Z,97429.03
2023-08-05T00:14:48.026Z,97434.53
2023-08-05T00:20:29.636Z,97443.13
2023-08-05T00:22:54.116Z,97441.59
2023-08-05T00:25:27.805Z,97444.00
2023-08-05T00:28:11.132Z,97443.31
2023-08-05T00:30:38.899Z,97442.16
2023-08-05T00:33:04.399Z,97439.31
2023-08-05T00:36:13.416Z,97429.16
2023-08-05T00:39:13.735Z,97414.22
2023-08-05T00:41:56.223Z,97410.53
2023-08-05T00:44:18.146Z,97401.78
2023-08-05T00:46:41.603Z,97405.59
2023-08-05T00:48:54.356Z,97400.94
2023-08-05T00:51:11.562Z,97400.53
2023-08-05T00:53:24.407Z,97389.38
2023-08-05T00:55:35.613Z,97392.91
2023-08-05T00:57:53.002Z,97392.06
2023-08-05T01:00:09.351Z,97385.69
2023-08-05T01:05:22.115Z,97392.47
2023-08-05T01:07:47.650Z,97399.78
2023-08-05T01:09:57.531Z,97402.34
2023-08-05T01:12:12.014Z,97395.16
2023-08-05T01:16:59.273Z,97403.91
2023-08-05T01:19:12.400Z,97408.13
2023-08-05T01:22:00.689Z,97405.16
2023-08-05T01:40:44.861Z,97400.34
2023-08-05T01:43:46.045Z,97403.59
2023-08-05T01:52:16.225Z,97418.56
2023-08-05T02:00:34.071Z,97402.91
2023-08-05T02:03:19.007Z,97397.13
2023-08-05T02:05:35.001Z,97386.81
2023-08-05T02:14:05.504Z,97389.06
2023-08-05T02:17:10.779Z,97387.13
2023-08-05T02:20:33.720Z,97377.22
2023-08-05T02:23:21.710Z,97375.25
2023-08-05T02:29:58.174Z,97344.06
2023-08-05T02:33:16.294Z,97330.13
2023-08-05T02:36:23.862Z,97324.34
2023-08-05T02:41:57.806Z,97307.81
2023-08-05T02:45:00.421Z,97315.28
2023-08-05T03:16:01.901Z,97354.56
2023-08-05T03:32:18.892Z,97388.97
2023-08-05T03:35:15.249Z,97383.50
2023-08-05T03:37:45.110Z,97388.31
2023-08-05T03:41:16.709Z,97396.44
2023-08-05T03:47:33.940Z,97418.56
2023-08-05T03:57:01.297Z,97418.16
2023-08-05T03:59:52.266Z,97427.34
2023-08-05T04:02:54.977Z,97429.56
2023-08-05T04:06:04.393Z,97436.00
2023-08-05T04:08:54.954Z,97432.88
2023-08-05T04:11:41.906Z,97429.34
2023-08-05T04:24:46.919Z,97411.28
2023-08-05T04:44:37.922Z,97432.25
2023-08-05T04:47:23.155Z,97433.25
2023-08-05T04:53:21.448Z,97454.84
2023-08-05T04:59:25.850Z,97460.16
2023-08-05T05:08:18.135Z,97443.81
2023-08-05T05:10:50.026Z,97444.81
2023-08-05T05:13:01.372Z,97448.22
2023-08-05T05:15:14.829Z,97445.84
2023-08-05T05:17:45.371Z,97439.22
2023-08-05T05:19:58.152Z,97446.28
2023-08-05T05:22:11.154Z,97441.50
2023-08-05T05:24:35.355Z,97442.59
2023-08-05T05:26:52.964Z,97445.53
2023-08-05T05:29:04.150Z,97440.50
2023-08-05T05:31:15.256Z,97448.00
2023-08-05T05:33:30.815Z,97454.75
2023-08-05T05:35:40.738Z,97453.06
2023-08-05T05:37:50.911Z,97460.72
2023-08-05T05:39:59.412Z,97455.06
2023-08-05T05:42:13.675Z,97460.59
2023-08-05T05:44:21.686Z,97452.28
2023-08-05T05:46:29.950Z,97456.69
2023-08-05T05:48:42.107Z,97462.47
2023-08-05T05:50:50.593Z,97457.13
2023-08-05T05:53:00.514Z,97456.84
2023-08-05T05:55:22.912Z,97456.41
2023-08-05T05:57:34.668Z,97459.66
2023-08-05T05:59:50.625Z,97452.78
2023-08-05T06:02:10.713Z,97447.69
2023-08-05T06:04:23.827Z,97450.34
2023-08-05T06:06:33.946Z,97451.91
2023-08-05T06:08:52.364Z,97448.06
2023-08-05T06:11:08.110Z,97446.78
2023-08-05T06:13:18.879Z,97449.47
2023-08-05T06:15:28.309Z,97436.63
2023-08-05T06:17:36.232Z,97438.84
2023-08-05T06:19:58.247Z,97440.56
2023-08-05T06:22:06.445Z,97442.28
2023-08-05T06:24:14.416Z,97450.00
2023-08-05T06:26:23.585Z,97447.31
2023-08-05T06:28:34.293Z,97454.63
2023-08-05T06:30:55.614Z,97446.94
2023-08-05T06:33:07.988Z,97459.44
2023-08-05T06:35:17.534Z,97453.81
2023-08-05T06:37:27.576Z,97450.91
2023-08-05T06:39:46.205Z,97459.13
2023-08-05T06:41:54.640Z,97463.69
2023-08-05T06:44:24.066Z,97459.75
2023-08-05T06:46:42.565Z,97455.56
2023-08-05T06:48:53.031Z,97454.53
2023-08-05T06:51:06.579Z,97462.22
2023-08-05T06:53:14.853Z,97457.78
2023-08-05T06:55:27.863Z,97466.88
2023-08-05T06:57:38.942Z,97461.97
2023-08-05T06:59:54.127Z,97455.25
2023-08-05T07:02:07.354Z,97460.13
2023-08-05T07:04:19.696Z,97452.25
2023-08-05T07:06:31.315Z,97452.78
2023-08-05T07:08:45.316Z,97454.47
2023-08-05T07:10:57.870Z,97448.72
2023-08-05T07:13:14.917Z,97449.19
2023-08-05T07:15:25.690Z,97443.13
2023-08-05T07:17:37.037Z,97439.06
2023-08-05T07:19:46.352Z,97444.16
2023-08-05T07:21:58.422Z,97446.09
2023-08-05T07:24:07.483Z,97459.25
2023-08-05T07:26:17.374Z,97470.50
2023-08-05T07:28:26.467Z,97460.31
2023-08-05T07:30:41.923Z,97462.44
2023-08-05T07:32:50.549Z,97469.31
2023-08-05T07:34:58.843Z,97461.28
2023-08-05T07:37:10.554Z,97457.06
2023-08-05T07:39:18.579Z,97468.22
2023-08-05T07:41:27.963Z,97475.66
2023-08-05T07:43:37.421Z,97477.63
2023-08-05T07:45:48.081Z,97489.75
2023-08-05T07:47:57.919Z,97480.56
2023-08-05T07:50:07.900Z,97476.63
2023-08-05T07:52:18.889Z,97473.69
2023-08-05T07:54:28.152Z,97464.75
2023-08-05T07:56:37.412Z,97459.03
2023-08-05T07:58:47.773Z,97457.38
2023-08-05T08:01:01.803Z,97461.06
2023-08-05T08:03:10.674Z,97453.47
2023-08-05T08:05:19.079Z,97451.00
2023-08-05T08:07:27.291Z,97453.91
2023-08-05T08:09:35.400Z,97451.09
2023-08-05T08:11:44.445Z,97468.53
2023-08-05T08:13:52.860Z,97460.81
2023-08-05T08:16:01.293Z,97469.88
2023-08-05T08:18:09.662Z,97464.91
2023-08-05T08:20:18.052Z,97455.47
2023-08-05T08:22:26.341Z,97449.41
2023-08-05T08:24:34.827Z,97455.44
2023-08-05T08:26:43.139Z,97443.97
2023-08-05T08:28:51.582Z,97451.19
2023-08-05T08:31:01.014Z,97450.03
2023-08-05T08:33:12.298Z,97452.38
2023-08-05T08:35:20.604Z,97458.38
2023-08-05T08:37:29.002Z,97447.44
2023-08-05T08:39:34.605Z,97441.66
2023-08-05T08:41:47.935Z,97439.06
2023-08-05T08:43:58.101Z,97437.84
2023-08-05T08:46:09.306Z,97435.78
2023-08-05T08:48:25.010Z,97443.00
2023-08-05T08:50:35.084Z,97437.63
2023-08-05T08:52:49.550Z,97443.09
2023-08-05T08:54:59.268Z,97445.09
2023-08-05T08:57:07.802Z,97432.47
2023-08-05T08:59:16.325Z,97437.06
2023-08-05T09:01:27.261Z,97429.75
2023-08-05T09:03:39.005Z,97428.44
2023-08-05T09:05:54.262Z,97422.97
2023-08-05T09:08:04.618Z,97410.88
2023-08-05T09:10:17.122Z,97415.88
2023-08-05T09:12:26.741Z,97412.84
2023-08-05T09:14:34.964Z,97435.75
2023-08-05T09:17:00.997Z,97454.53
2023-08-05T09:19:11.826Z,97452.13
2023-08-05T09:21:25.947Z,97480.81
2023-08-05T09:23:31.526Z,97474.81
2023-08-05T09:25:44.264Z,97477.22
2023-08-05T09:27:54.308Z,97494.66
2023-08-05T09:30:18.341Z,97494.28
2023-08-05T09:32:37.905Z,97491.41
2023-08-05T09:34:51.920Z,97492.47
2023-08-05T09:37:00.281Z,97494.53
2023-08-05T09:39:12.943Z,97495.13
2023-08-05T09:41:35.908Z,97499.28
2023-08-05T09:43:47.012Z,97498.28
2023-08-05T09:45:55.637Z,97483.25
2023-08-05T09:48:09.203Z,97462.78
2023-08-05T09:50:22.052Z,97443.88
2023-08-05T09:52:32.324Z,97436.84
2023-08-05T09:54:41.668Z,97421.63
2023-08-05T09:56:50.425Z,97419.56
2023-08-05T09:58:58.641Z,97428.88
2023-08-05T10:01:09.557Z,97421.94
2023-08-05T10:03:17.774Z,97420.59
2023-08-05T10:05:28.551Z,97413.97
2023-08-05T10:07:34.057Z,97404.66
2023-08-05T10:09:42.283Z,97378.94
2023-08-05T10:11:51.400Z,97395.13
2023-08-05T10:14:00.870Z,97413.84
2023-08-05T10:16:12.560Z,97426.91
2023-08-05T10:18:22.072Z,97422.69
2023-08-05T10:20:39.093Z,97426.00
2023-08-05T10:23:05.373Z,97422.63
2023-08-05T10:25:13.525Z,97408.91
2023-08-05T10:27:18.875Z,97407.91
2023-08-05T10:29:30.890Z,97403.69
2023-08-05T10:31:40.972Z,97406.94
2023-08-05T10:34:16.543Z,97383.06
2023-08-05T10:36:44.730Z,97391.09
2023-08-05T10:38:52.724Z,97406.22
2023-08-05T10:41:03.813Z,97414.72
2023-08-05T10:43:10.711Z,97395.97
2023-08-05T10:45:18.877Z,97397.50
2023-08-05T10:47:25.060Z,97396.97
2023-08-05T10:49:33.970Z,97394.53
2023-08-05T10:51:45.054Z,97391.13
2023-08-05T10:54:03.565Z,97398.09
2023-08-05T10:56:15.085Z,97379.56
2023-08-05T10:58:26.050Z,97371.72
2023-08-05T11:00:43.520Z,97362.81
2023-08-05T11:02:51.966Z,97362.56
2023-08-05T11:05:10.690Z,97362.59
2023-08-05T11:07:22.048Z,97347.91
2023-08-05T11:09:30.707Z,97347.03
2023-08-05T11:11:39.332Z,97349.09
2023-08-05T11:13:51.412Z,97336.25
2023-08-05T11:16:11.022Z,97327.28
2023-08-05T11:18:19.126Z,97337.91
2023-08-05T11:20:35.401Z,97322.69
2023-08-05T11:22:50.781Z,97319.00
2023-08-05T11:25:00.374Z,97330.16
2023-08-05T11:27:09.428Z,97325.66
2023-08-05T11:29:17.955Z,97333.69
2023-08-05T11:31:27.054Z,97325.56
2023-08-05T11:33:36.761Z,97316.91
2023-08-05T11:35:47.048Z,97324.19
2023-08-05T11:38:02.860Z,97321.47
2023-08-05T11:40:12.020Z,97313.91
2023-08-05T11:42:20.720Z,97319.34
2023-08-05T11:44:28.756Z,97302.63
2023-08-05T11:48:49.431Z,97314.19
2023-08-05T11:51:02.742Z,97303.53
2023-08-05T11:53:15.722Z,97302.88
2023-08-05T11:55:24.199Z,97303.66
2023-08-05T11:57:33.881Z,97309.84
2023-08-05T11:59:44.444Z,97293.66
2023-08-05T12:01:53.991Z,97294.63
2023-08-05T12:04:02.510Z,97305.53
2023-08-05T12:06:13.691Z,97304.31
2023-08-05T12:08:46.090Z,97314.97
2023-08-05T12:11:00.604Z,97311.63
2023-08-05T12:13:10.607Z,97306.97
2023-08-05T12:15:24.222Z,97303.28
2023-08-05T12:17:32.960Z,97300.47
2023-08-05T12:19:43.237Z,97316.22
2023-08-05T12:21:51.159Z,97313.72
2023-08-05T12:24:01.904Z,97302.59
2023-08-05T12:26:09.926Z,97291.69
2023-08-05T12:28:19.571Z,97290.97
2023-08-05T12:30:27.965Z,97301.09
2023-08-05T12:32:36.545Z,97297.53
2023-08-05T12:34:44.606Z,97283.69
2023-08-05T12:36:52.706Z,97281.59
2023-08-05T12:39:05.017Z,97269.66
2023-08-05T12:41:14.655Z,97274.19
2023-08-05T12:43:22.529Z,97260.84
2023-08-05T12:45:30.747Z,97254.00
2023-08-05T12:47:40.215Z,97254.66
2023-08-05T12:49:48.815Z,97267.84
2023-08-05T12:51:57.294Z,97257.25
2023-08-05T12:54:09.529Z,97259.84
2023-08-05T12:56:18.101Z,97246.38
2023-08-05T12:58:24.020Z,97248.78
2023-08-05T13:00:32.530Z,97249.50
2023-08-05T13:02:40.986Z,97243.00
2023-08-05T13:04:46.751Z,97236.78
2023-08-05T13:06:55.065Z,97238.66
2023-08-05T13:09:03.239Z,97235.03
2023-08-05T13:11:14.057Z,97237.94
2023-08-05T13:13:21.973Z,97228.28
2023-08-05T13:15:29.985Z,97219.19
2023-08-05T13:17:38.071Z,97225.50
2023-08-05T13:19:44.690Z,97222.59
2023-08-05T13:21:52.777Z,97219.66
2023-08-05T13:24:00.950Z,97213.00
2023-08-05T13:26:09.823Z,97196.34
2023-08-05T13:28:20.657Z,97196.00
2023-08-05T13:30:28.617Z,97192.34
2023-08-05T13:32:36.586Z,97196.78
2023-08-05T13:34:44.680Z,97198.19
2023-08-05T13:36:52.758Z,97189.19
2023-08-05T13:39:00.718Z,97184.59
2023-08-05T13:41:09.217Z,97179.19
2023-08-05T13:43:17.152Z,97178.91
2023-08-05T13:45:27.942Z,97180.63
2023-08-05T13:47:35.945Z,97170.41
2023-08-05T13:49:44.067Z,97175.09
2023-08-05T13:51:53.043Z,97168.34
2023-08-05T13:54:01.252Z,97159.72
2023-08-05T13:56:09.589Z,97157.50
2023-08-05T13:58:17.570Z,97161.59
2023-08-05T14:00:28.527Z,97159.09
2023-08-05T14:02:36.870Z,97148.22
2023-08-05T14:04:47.328Z,97162.34
2023-08-05T14:06:55.362Z,97159.44
2023-08-05T14:09:07.312Z,97156.13
2023-08-05T14:11:15.581Z,97159.38
2023-08-05T14:13:23.825Z,97169.13
2023-08-05T14:15:37.409Z,97168.94
2023-08-05T14:17:45.610Z,97150.25
2023-08-05T14:19:56.417Z,97143.06
2023-08-05T14:22:04.400Z,97147.75
2023-08-05T14:24:13.528Z,97154.41
2023-08-05T14:26:21.639Z,97149.78
2023-08-05T14:28:30.174Z,97145.91
2023-08-05T14:30:43.866Z,97151.50
2023-08-05T14:32:52.049Z,97144.41
2023-08-05T14:35:07.645Z,97126.97
2023-08-05T14:37:16.856Z,97131.69
2023-08-05T14:39:25.227Z,97129.81
2023-08-05T14:41:32.196Z,97128.03
2023-08-05T14:43:40.073Z,97131.19
2023-08-05T14:45:50.734Z,97129.91
2023-08-05T14:47:59.277Z,97126.97
2023-08-05T14:50:14.907Z,97121.72
2023-08-05T14:52:39.112Z,97113.19
2023-08-05T14:55:07.140Z,97106.50
2023-08-05T14:57:31.611Z,97119.38
2023-08-05T14:59:42.643Z,97113.81
2023-08-05T15:02:02.520Z,97102.06
2023-08-05T15:04:15.580Z,97112.78
2023-08-05T15:06:37.913Z,97109.91
2023-08-05T15:09:23.660Z,97109.28
2023-08-05T15:11:34.632Z,97104.28
2023-08-05T15:13:42.617Z,97105.16
2023-08-05T15:16:02.795Z,97099.41
2023-08-05T15:18:13.404Z,97095.72
2023-08-05T15:20:27.329Z,97087.91
2023-08-05T15:22:37.224Z,97084.06
2023-08-05T15:24:45.743Z,97085.97
2023-08-05T15:26:53.880Z,97080.34
2023-08-05T15:29:02.547Z,97080.66
2023-08-05T15:31:19.296Z,97071.06
2023-08-05T15:33:34.661Z,97062.22
2023-08-05T15:35:43.007Z,97054.84
2023-08-05T15:37:55.223Z,97058.34
2023-08-05T15:40:03.785Z,97055.91
2023-08-05T15:42:09.784Z,97059.19
2023-08-05T15:44:20.918Z,97051.63
2023-08-05T15:46:30.781Z,97051.88
2023-08-05T15:48:43.795Z,97054.13
2023-08-05T15:50:52.558Z,97055.13
2023-08-05T15:53:00.800Z,97049.28
2023-08-05T15:55:21.140Z,97047.28
2023-08-05T15:57:29.398Z,97043.38
2023-08-05T15:59:37.854Z,97032.50
2023-08-05T16:01:47.284Z,97030.19
2023-08-05T16:04:06.916Z,97025.56
2023-08-05T16:06:17.509Z,97026.34
2023-08-05T16:08:28.689Z,97013.13
2023-08-05T16:11:04.669Z,97019.22
2023-08-05T16:13:14.554Z,97022.44
2023-08-05T16:15:24.426Z,97026.75
2023-08-05T16:17:40.719Z,97016.75
2023-08-05T16:22:19.565Z,97019.56
2023-08-05T16:24:36.768Z,97011.47
2023-08-05T16:26:57.032Z,97004.66
2023-08-05T16:29:22.900Z,97005.59
2023-08-05T16:31:36.265Z,97003.28
2023-08-05T16:34:18.627Z,97001.97
2023-08-05T16:36:42.684Z,96997.19
2023-08-05T16:38:56.401Z,96995.59
2023-08-05T16:41:12.078Z,96993.03
2023-08-05T16:43:24.590Z,96992.59
2023-08-05T16:45:33.484Z,96984.34
2023-08-05T16:47:44.540Z,96990.75
2023-08-05T16:49:59.197Z,96991.25
2023-08-05T16:52:12.122Z,96981.34
2023-08-05T16:54:28.314Z,96984.69
2023-08-05T16:56:45.475Z,96973.28
2023-08-05T16:59:07.652Z,96970.22
2023-08-05T17:01:38.003Z,96963.47
2023-08-05T17:03:48.819Z,96970.66
2023-08-05T17:06:05.787Z,96960.06
2023-08-05T17:08:31.299Z,96961.22
2023-08-05T17:10:47.514Z,96954.97
2023-08-05T17:13:02.927Z,96952.31
2023-08-05T17:15:16.646Z,96947.91
2023-08-05T17:17:30.392Z,96944.06
2023-08-05T17:19:57.265Z,96942.97
2023-08-05T17:22:18.749Z,96938.75
2023-08-05T17:24:41.376Z,96932.41
2023-08-05T17:27:20.501Z,96936.56
2023-08-05T17:29:59.862Z,96936.69
2023-08-05T17:32:14.332Z,96936.69
2023-08-05T17:34:27.103Z,96932.41
2023-08-05T17:36:40.817Z,96935.59
2023-08-05T17:38:57.612Z,96936.25
2023-08-05T17:41:24.270Z,96935.50
2023-08-05T17:43:47.297Z,96928.97
2023-08-05T17:46:13.581Z,96940.09
2023-08-05T17:48:48.740Z,96929.72
2023-08-05T17:51:18.813Z,96930.66
2023-08-05T17:53:49.626Z,96929.63
2023-08-05T17:56:22.220Z,96924.38
2023-08-05T17:58:52.650Z,96926.03
2023-08-05T18:01:13.569Z,96923.78
2023-08-05T18:03:26.094Z,96914.34
2023-08-05T18:05:39.992Z,96913.59
2023-08-05T18:07:48.429Z,96910.66
2023-08-05T18:10:13.767Z,96913.84
2023-08-05T18:12:36.459Z,96904.91
2023-08-05T18:15:04.739Z,96914.00
2023-08-05T18:17:23.085Z,96916.06
2023-08-05T18:22:20.328Z,96905.53
2023-08-05T18:24:52.734Z,96903.38
2023-08-05T18:27:17.351Z,96892.41
2023-08-05T18:29:30.499Z,96886.25
2023-08-05T18:31:48.695Z,96891.47
2023-08-05T18:34:05.185Z,96903.69
2023-08-05T18:36:15.005Z,96905.06
2023-08-05T18:38:28.695Z,96894.47
2023-08-05T18:40:42.496Z,96895.50
2023-08-05T18:42:54.322Z,96895.59
2023-08-05T18:45:32.871Z,96897.31
2023-08-05T18:47:46.492Z,96900.88
2023-08-05T18:50:01.517Z,96911.09
2023-08-05T18:52:10.770Z,96906.38
2023-08-05T18:54:19.168Z,96904.53
2023-08-05T18:56:29.393Z,96913.94
2023-08-05T18:58:40.077Z,96911.19
2023-08-05T19:00:51.565Z,96905.63
2023-08-05T19:03:02.489Z,96918.06
2023-08-05T19:05:14.902Z,96920.88
2023-08-05T19:07:23.228Z,96920.53
2023-08-05T19:09:33.414Z,96919.47
2023-08-05T19:17:14.538Z,96921.81
2023-08-05T19:19:29.081Z,96912.94
2023-08-05T19:21:43.374Z,96912.72
2023-08-05T19:24:24.946Z,96911.84
2023-08-05T19:32:55.811Z,96892.56
2023-08-05T19:35:07.535Z,96884.41
2023-08-05T19:37:13.287Z,96880.72
2023-08-05T19:39:21.635Z,96877.16
2023-08-05T19:41:30.078Z,96850.06
2023-08-05T19:43:40.154Z,96847.19
2023-08-05T19:45:49.031Z,96844.59
2023-08-05T19:47:57.449Z,96835.91
2023-08-05T19:50:06.782Z,96825.66
2023-08-05T19:52:15.127Z,96824.97
2023-08-05T19:54:23.815Z,96819.78
2023-08-05T19:56:32.046Z,96821.44
2023-08-05T19:58:37.595Z,96828.41
2023-08-05T20:00:51.600Z,96828.25
2023-08-05T20:03:00.218Z,96828.94
2023-08-05T20:05:12.220Z,96827.69
2023-08-05T20:07:20.575Z,96811.53
2023-08-05T20:09:28.959Z,96811.13
2023-08-05T20:11:37.523Z,96806.25
2023-08-05T20:13:45.652Z,96795.91
2023-08-05T20:16:00.021Z,96784.66
2023-08-05T20:18:08.491Z,96782.38
2023-08-05T20:20:19.951Z,96777.13
2023-08-05T20:22:30.730Z,96780.19
2023-08-05T20:24:39.165Z,96778.28
2023-08-05T20:26:48.504Z,96775.00
2023-08-05T20:28:57.426Z,96753.66
2023-08-05T20:31:05.944Z,96745.78
2023-08-05T20:33:14.320Z,96735.59
2023-08-05T20:35:25.659Z,96734.25
2023-08-05T20:37:33.991Z,96721.94
2023-08-05T20:39:42.298Z,96711.97
2023-08-05T20:41:50.793Z,96699.16
2023-08-05T20:43:59.534Z,96695.03
2023-08-05T20:46:07.906Z,96689.28
2023-08-05T20:48:16.402Z,96682.22
2023-08-05T20:50:27.162Z,96677.75
2023-08-05T20:52:35.376Z,96675.25
2023-08-05T20:54:43.853Z,96666.31
2023-08-05T20:56:52.576Z,96653.66
2023-08-05T20:59:01.513Z,96649.69
2023-08-05T21:01:13.864Z,96641.16
2023-08-05T21:03:22.578Z,96652.88
2023-08-05T21:05:33.770Z,96661.78
2023-08-05T21:07:42.055Z,96661.66
2023-08-05T21:09:50.290Z,96672.69
2023-08-05T21:11:58.667Z,96666.47
2023-08-05T21:14:07.792Z,96665.94
2023-08-05T21:16:16.142Z,96654.69
2023-08-05T21:18:25.066Z,96659.22
2023-08-05T21:20:36.306Z,96659.84
2023-08-05T21:22:44.526Z,96667.94
2023-08-05T21:24:52.769Z,96678.41
2023-08-05T21:27:01.362Z,96670.75
2023-08-05T21:29:10.260Z,96671.50
2023-08-05T21:31:18.517Z,96669.00
2023-08-05T21:33:24.394Z,96660.75
2023-08-05T21:35:35.975Z,96660.47
2023-08-05T21:37:44.253Z,96656.88
2023-08-05T21:39:54.208Z,96657.72
2023-08-05T21:42:02.505Z,96648.78
2023-08-05T21:44:11.087Z,96648.41
2023-08-05T21:46:19.356Z,96645.91
2023-08-05T21:48:29.611Z,96642.97
2023-08-05T21:50:41.622Z,96639.66
2023-08-05T21:52:50.045Z,96638.84
2023-08-05T21:54:58.379Z,96636.88
2023-08-05T21:57:07.200Z,96633.91
2023-08-05T21:59:15.341Z,96631.22
2023-08-05T22:01:23.564Z,96621.69
2023-08-05T22:03:31.896Z,96627.34
2023-08-05T22:05:43.322Z,96621.59
2023-08-05T22:07:51.711Z,96618.53
2023-08-05T22:10:00.211Z,96616.03
2023-08-05T22:12:09.504Z,96613.34
2023-08-05T22:14:20.700Z,96612.81
2023-08-05T22:16:29.056Z,96613.13
2023-08-05T22:18:37.405Z,96603.94
2023-08-05T22:20:54.418Z,96603.50
2023-08-05T22:23:02.815Z,96600.44
2023-08-05T22:25:12.850Z,96600.03
2023-08-05T22:27:21.193Z,96603.94
2023-08-05T22:29:29.529Z,96592.56
2023-08-05T22:31:38.868Z,96594.19
2023-08-05T22:33:47.245Z,96592.25
2023-08-05T22:35:58.317Z,96590.03
2023-08-05T22:38:06.451Z,96588.91
2023-08-05T22:40:15.875Z,96587.28
2023-08-05T22:42:24.160Z,96585.66
2023-08-05T22:44:32.530Z,96583.53
2023-08-05T22:46:40.808Z,96589.81
2023-08-05T22:48:48.797Z,96581.44
2023-08-05T22:50:59.538Z,96580.84
2023-08-05T22:53:07.850Z,96574.34
2023-08-05T22:55:15.888Z,96565.31
2023-08-05T22:57:24.628Z,96573.28
2023-08-05T22:59:34.353Z,96563.59
2023-08-05T23:01:42.695Z,96564.09
2023-08-05T23:03:51.681Z,96565.63
2023-08-05T23:06:03.086Z,96563.94
2023-08-05T23:08:11.395Z,96555.38
2023-08-05T23:10:19.859Z,96564.09
2023-08-05T23:12:28.101Z,96558.41
2023-08-05T23:14:36.262Z,96558.38
2023-08-05T23:16:45.143Z,96547.50
2023-08-05T23:18:50.864Z,96549.88
2023-08-05T23:20:59.156Z,96554.25
2023-08-05T23:23:10.263Z,96550.84
2023-08-05T23:25:18.641Z,96560.91
2023-08-05T23:27:27.064Z,96552.59
2023-08-05T23:29:35.281Z,96540.50
2023-08-05T23:31:43.652Z,96528.81
2023-08-05T23:33:52.080Z,96536.63
2023-08-05T23:36:00.853Z,96534.31
2023-08-05T23:38:14.034Z,96539.19
2023-08-05T23:40:22.283Z,96537.09
2023-08-05T23:42:30.517Z,96531.81
2023-08-05T23:44:38.991Z,96532.19
2023-08-05T23:46:47.271Z,96527.13
2023-08-05T23:48:55.545Z,96523.69
2023-08-05T23:51:03.617Z,96526.03
2023-08-05T23:53:14.758Z,96535.16
2023-08-05T23:55:22.945Z,96530.13
2023-08-05T23:57:31.205Z,96532.13
2023-08-05T23:59:39.274Z,96518.06
